Time;durP1;ratioP1;P1;durP2;ratioP2;P2;SDS_P1;SDS_P2;PMS_P1;PMS_P2;Temp;Humidity;BMP_temperature;BMP_pressure;BME280_temperature;BME280_humidity;BME280_pressure;Samples;Min_cycle;Max_cycle;Signal;HPM_P1;HPM_P2
2023/05/17 00:00:56;;;;;;;4.50;1.67;;;8.50;99.90;;;;;;5014413;28;20205;-68
2023/05/17 00:03:21;;;;;;;4.60;1.67;;;8.50;99.90;;;;;;5023884;28;20180;-68
2023/05/17 00:05:47;;;;;;;3.30;1.80;;;8.50;99.90;;;;;;5025429;28;20183;-69
2023/05/17 00:08:13;;;;;;;5.17;1.87;;;8.40;99.90;;;;;;5024868;28;20192;-67
2023/05/17 00:10:38;;;;;;;5.53;1.87;;;8.30;99.90;;;;;;5025243;28;20524;-71
2023/05/17 00:13:04;;;;;;;1.77;1.40;;;8.20;99.90;;;;;;5014770;28;20319;-69
2023/05/17 00:15:30;;;;;;;4.40;3.07;;;8.30;99.90;;;;;;5014920;28;20182;-67
2023/05/17 00:17:56;;;;;;;6.30;1.90;;;8.30;99.90;;;;;;5017110;28;20545;-68
2023/05/17 00:20:21;;;;;;;4.13;2.50;;;8.20;99.90;;;;;;5023559;28;20501;-68
2023/05/17 00:22:47;;;;;;;1.90;1.67;;;8.40;99.90;;;;;;5021403;28;20934;-69
2023/05/17 00:25:12;;;;;;;3.10;2.00;;;8.40;99.90;;;;;;5021861;28;20654;-68
2023/05/17 00:27:38;;;;;;;6.23;2.23;;;8.20;99.90;;;;;;5023052;28;20508;-69
2023/05/17 00:30:05;;;;;;;2.70;2.07;;;8.20;99.90;;;;;;5022953;28;20251;-68
2023/05/17 00:32:30;;;;;;;5.90;2.27;;;8.20;99.90;;;;;;5023292;28;20187;-67
2023/05/17 00:34:56;;;;;;;5.93;2.50;;;8.20;99.90;;;;;;5017934;28;20441;-68
2023/05/17 00:37:22;;;;;;;13.00;3.00;;;8.30;99.90;;;;;;5024218;28;20183;-69
2023/05/17 00:39:47;;;;;;;7.93;2.80;;;8.20;99.90;;;;;;5016077;28;20262;-71
2023/05/17 00:42:14;;;;;;;7.60;2.80;;;8.00;99.90;;;;;;5021436;28;20179;-68
2023/05/17 00:44:40;;;;;;;4.30;2.60;;;8.00;99.90;;;;;;5005838;28;20232;-68
2023/05/17 00:47:05;;;;;;;4.60;2.30;;;8.00;99.90;;;;;;5024900;28;20411;-70
2023/05/17 00:49:31;;;;;;;9.50;3.07;;;8.00;99.90;;;;;;5023710;28;20257;-68
2023/05/17 00:51:58;;;;;;;10.93;2.80;;;7.90;99.90;;;;;;5019570;28;20180;-68
2023/05/17 00:54:24;;;;;;;6.07;3.13;;;8.00;99.90;;;;;;5011482;28;20701;-68
2023/05/17 00:56:52;;;;;;;7.37;2.57;;;7.90;99.90;;;;;;5023686;28;20420;-68
2023/05/17 00:59:18;;;;;;;3.10;2.53;;;7.90;99.90;;;;;;5023367;28;20917;-68
2023/05/17 01:01:44;;;;;;;7.10;3.60;;;7.90;99.90;;;;;;5012734;28;20406;-67
2023/05/17 01:04:10;;;;;;;6.00;3.13;;;7.80;99.90;;;;;;5026586;28;20418;-68
2023/05/17 01:06:36;;;;;;;3.93;2.50;;;7.80;99.90;;;;;;5024125;28;20244;-68
2023/05/17 01:09:03;;;;;;;4.30;2.60;;;7.80;99.90;;;;;;5024403;28;20199;-68
2023/05/17 01:12:06;;;;;;;11.50;2.50;;;7.80;99.90;;;;;;5021503;28;20414;-69
2023/05/17 01:14:56;;;;;;;6.40;3.30;;;7.70;99.90;;;;;;5027050;28;20407;-69
2023/05/17 01:17:34;;;;;;;9.57;4.17;;;7.80;99.90;;;;;;5018373;28;20412;-68
2023/05/17 01:20:13;;;;;;;9.17;5.47;;;7.70;99.90;;;;;;5020540;28;20980;-68
2023/05/17 01:22:43;;;;;;;13.53;2.90;;;7.60;99.90;;;;;;5011027;28;20398;-68
2023/05/17 01:25:19;;;;;;;12.10;3.60;;;7.50;99.90;;;;;;5024091;28;20419;-68
2023/05/17 01:27:48;;;;;;;6.00;3.20;;;7.70;99.90;;;;;;5014378;28;20531;-68
2023/05/17 01:30:14;;;;;;;6.53;2.90;;;7.70;99.90;;;;;;5023016;28;20418;-68
2023/05/17 01:32:41;;;;;;;9.90;3.23;;;7.60;99.90;;;;;;5020644;28;20407;-68
2023/05/17 01:35:08;;;;;;;7.50;2.80;;;7.50;99.90;;;;;;5022441;28;20862;-69
2023/05/17 01:37:33;;;;;;;4.83;3.30;;;7.60;99.90;;;;;;5023673;28;20430;-69
2023/05/17 01:39:59;;;;;;;3.70;3.07;;;7.50;99.90;;;;;;5022789;28;20619;-68
2023/05/17 01:42:32;;;;;;;10.87;3.40;;;7.40;99.90;;;;;;5021860;28;20177;-68
2023/05/17 01:45:07;;;;;;;10.93;2.80;;;7.50;99.90;;;;;;5023865;28;20180;-68
2023/05/17 01:47:59;;;;;;;12.17;4.30;;;7.50;99.90;;;;;;5021808;28;20433;-67
2023/05/17 01:50:28;;;;;;;5.17;3.60;;;7.50;99.90;;;;;;5016468;28;20432;-68
2023/05/17 01:53:01;;;;;;;7.83;3.03;;;7.50;99.90;;;;;;5020353;28;20481;-70
2023/05/17 01:55:51;;;;;;;10.30;4.43;;;7.40;99.90;;;;;;5025798;28;20497;-68
2023/05/17 01:58:23;;;;;;;7.93;2.67;;;7.40;99.90;;;;;;5010955;28;20557;-68
2023/05/17 02:00:52;;;;;;;7.27;3.63;;;7.30;99.90;;;;;;5024587;28;20412;-69
2023/05/17 02:03:19;;;;;;;13.73;4.03;;;7.60;99.90;;;;;;5021394;28;20438;-67
2023/05/17 02:05:45;;;;;;;8.13;3.50;;;7.60;99.90;;;;;;5026106;28;20470;-67
2023/05/17 02:08:11;;;;;;;7.57;3.30;;;7.50;99.90;;;;;;5018647;28;20451;-71
2023/05/17 02:10:37;;;;;;;13.13;3.93;;;7.50;99.90;;;;;;5023405;28;20262;-67
2023/05/17 02:13:02;;;;;;;11.17;3.57;;;7.40;99.90;;;;;;5022632;28;20514;-69
2023/05/17 02:15:28;;;;;;;8.23;4.10;;;7.30;99.90;;;;;;5022513;28;20184;-69
2023/05/17 02:17:54;;;;;;;9.70;4.03;;;7.30;99.90;;;;;;5024035;28;20204;-68
2023/05/17 02:20:20;;;;;;;8.30;3.20;;;7.30;99.90;;;;;;5021113;28;20190;-69
2023/05/17 02:22:45;;;;;;;13.80;6.17;;;7.50;99.90;;;;;;5025572;28;20267;-67
2023/05/17 02:25:11;;;;;;;12.60;3.30;;;7.60;99.90;;;;;;5019269;28;20242;-69
2023/05/17 02:27:36;;;;;;;12.13;4.37;;;7.60;99.90;;;;;;5022698;28;20211;-70
2023/05/17 02:30:03;;;;;;;16.07;4.23;;;7.60;99.90;;;;;;5022972;28;20253;-68
2023/05/17 02:32:29;;;;;;;15.10;5.70;;;7.60;99.90;;;;;;5022617;28;20192;-70
2023/05/17 02:34:55;;;;;;;8.87;3.80;;;7.60;99.90;;;;;;5022517;28;20419;-68
2023/05/17 02:37:21;;;;;;;17.37;6.67;;;7.70;99.90;;;;;;5022502;28;20477;-70
2023/05/17 02:39:46;;;;;;;9.23;4.40;;;7.80;99.90;;;;;;5022763;28;20209;-68
2023/05/17 02:42:12;;;;;;;7.47;3.30;;;7.80;99.90;;;;;;5019659;28;20180;-68
2023/05/17 02:44:38;;;;;;;7.80;4.60;;;7.90;99.90;;;;;;5022524;28;20223;-68
2023/05/17 02:47:04;;;;;;;15.27;4.50;;;8.00;99.90;;;;;;5022801;28;20820;-68
2023/05/17 02:49:29;;;;;;;10.60;4.27;;;8.00;99.90;;;;;;5021717;28;20228;-69
2023/05/17 02:51:55;;;;;;;8.50;4.40;;;8.00;99.90;;;;;;5022703;28;20512;-68
2023/05/17 02:54:21;;;;;;;9.90;4.30;;;8.10;99.90;;;;;;5016330;28;20189;-68
2023/05/17 02:56:46;;;;;;;13.80;3.40;;;8.10;99.90;;;;;;5010949;28;20176;-68
2023/05/17 02:59:13;;;;;;;9.37;4.00;;;8.20;99.90;;;;;;5018260;28;20287;-69
2023/05/17 03:01:38;;;;;;;5.67;3.47;;;8.20;99.90;;;;;;5023407;28;20264;-67
2023/05/17 03:04:04;;;;;;;13.63;6.00;;;8.20;99.90;;;;;;5026494;28;20952;-68
2023/05/17 03:06:30;;;;;;;6.90;4.20;;;8.30;99.90;;;;;;5025237;28;20559;-69
2023/05/17 03:08:56;;;;;;;14.57;6.40;;;8.30;99.90;;;;;;5026829;28;20445;-70
2023/05/17 03:11:24;;;;;;;10.03;3.53;;;8.40;99.90;;;;;;5024315;28;20648;-68
2023/05/17 03:13:50;;;;;;;12.03;3.40;;;8.40;99.90;;;;;;5019959;28;20668;-68
2023/05/17 03:16:16;;;;;;;8.23;3.30;;;8.40;99.90;;;;;;5023348;28;20415;-68
2023/05/17 03:18:45;;;;;;;13.80;4.13;;;8.40;99.90;;;;;;5026698;28;20223;-69
2023/05/17 03:21:10;;;;;;;9.53;3.13;;;8.40;99.90;;;;;;5024752;28;20415;-71
2023/05/17 03:23:36;;;;;;;8.80;3.90;;;8.40;99.90;;;;;;5026661;28;20486;-70
2023/05/17 03:26:02;;;;;;;11.03;4.53;;;8.40;99.90;;;;;;5026656;28;20218;-68
2023/05/17 03:28:28;;;;;;;14.90;4.70;;;8.40;99.90;;;;;;5023873;28;20227;-69
2023/05/17 03:30:53;;;;;;;10.40;4.03;;;8.40;99.90;;;;;;5028891;28;20182;-68
2023/05/17 03:33:19;;;;;;;9.77;3.30;;;8.40;99.90;;;;;;5025346;28;20188;-68
2023/05/17 03:35:48;;;;;;;10.30;3.77;;;8.50;99.90;;;;;;5027884;28;20532;-69
2023/05/17 03:38:13;;;;;;;5.27;2.83;;;8.50;99.90;;;;;;5026063;28;20208;-68
2023/05/17 03:40:40;;;;;;;8.37;3.90;;;8.50;99.90;;;;;;5021482;28;20461;-68
2023/05/17 03:43:06;;;;;;;10.43;3.30;;;8.60;99.90;;;;;;5028820;28;20203;-68
2023/05/17 03:45:34;;;;;;;12.70;3.33;;;8.60;99.90;;;;;;5023465;28;20405;-68
2023/05/17 03:48:00;;;;;;;6.70;3.80;;;8.60;99.90;;;;;;5028943;28;20217;-67
2023/05/17 03:50:25;;;;;;;9.33;3.60;;;8.60;99.90;;;;;;5022224;28;20508;-70
2023/05/17 03:52:51;;;;;;;7.80;2.90;;;8.70;99.90;;;;;;5014567;28;20180;-70
2023/05/17 03:55:17;;;;;;;12.63;3.07;;;8.70;99.90;;;;;;5028423;28;20179;-68
2023/05/17 03:57:45;;;;;;;12.83;4.20;;;8.60;99.90;;;;;;5021178;28;20203;-69
2023/05/17 04:00:11;;;;;;;5.83;3.63;;;8.60;99.90;;;;;;5028637;28;20270;-68
2023/05/17 04:02:37;;;;;;;12.70;4.00;;;8.50;99.90;;;;;;5026490;28;20874;-69
2023/05/17 04:05:04;;;;;;;14.40;4.20;;;8.50;99.90;;;;;;5025083;28;20415;-68
2023/05/17 04:07:29;;;;;;;8.00;3.40;;;8.50;99.90;;;;;;5023463;28;20519;-69
2023/05/17 04:10:01;;;;;;;5.93;3.10;;;8.50;99.90;;;;;;5022569;28;20491;-69
2023/05/17 04:12:27;;;;;;;6.73;3.50;;;8.50;99.90;;;;;;5028109;28;20179;-70
2023/05/17 04:14:55;;;;;;;9.13;3.13;;;8.50;99.90;;;;;;5021643;28;20418;-70
2023/05/17 04:17:21;;;;;;;10.80;4.07;;;8.60;99.90;;;;;;5028440;28;20241;-69
2023/05/17 04:19:46;;;;;;;6.10;3.90;;;8.70;99.90;;;;;;5022771;28;20963;-68
2023/05/17 04:22:13;;;;;;;10.40;3.87;;;8.80;99.90;;;;;;5030367;28;20173;-68
2023/05/17 04:24:38;;;;;;;10.17;4.20;;;8.70;99.90;;;;;;5021609;28;20541;-68
2023/05/17 04:27:05;;;;;;;14.97;4.10;;;8.60;99.90;;;;;;5022583;28;20419;-69
2023/05/17 04:29:31;;;;;;;13.57;3.77;;;8.70;99.90;;;;;;5026297;28;20210;-70
2023/05/17 04:31:56;;;;;;;12.80;4.03;;;8.80;99.90;;;;;;5029537;28;20419;-69
2023/05/17 04:34:25;;;;;;;14.23;3.50;;;8.80;99.90;;;;;;5023747;28;20562;-71
2023/05/17 04:36:51;;;;;;;10.73;4.37;;;8.70;99.90;;;;;;5028436;28;20174;-69
2023/05/17 04:39:17;;;;;;;8.30;3.93;;;8.80;99.90;;;;;;5014323;28;20896;-69
2023/05/17 04:41:45;;;;;;;7.00;3.63;;;9.00;99.90;;;;;;5011861;28;20490;-69
2023/05/17 04:44:11;;;;;;;7.57;4.80;;;9.00;99.90;;;;;;5020748;28;20177;-68
2023/05/17 04:46:57;;;;;;;12.07;4.10;;;9.10;99.90;;;;;;5025712;28;21042;-69
2023/05/17 04:49:23;;;;;;;6.23;3.80;;;9.20;99.90;;;;;;5020871;28;20577;-68
2023/05/17 04:51:49;;;;;;;6.03;3.63;;;9.40;99.90;;;;;;5018131;28;20428;-69
2023/05/17 04:54:15;;;;;;;5.23;4.40;;;9.20;99.90;;;;;;5018008;28;20420;-68
2023/05/17 04:56:40;;;;;;;10.33;3.90;;;9.20;99.90;;;;;;5018756;28;20188;-68
2023/05/17 04:59:06;;;;;;;9.03;3.60;;;9.30;99.90;;;;;;5023521;28;20203;-70
2023/05/17 05:01:34;;;;;;;6.00;3.70;;;9.40;99.90;;;;;;5018875;28;20167;-69
2023/05/17 05:03:59;;;;;;;6.07;3.63;;;9.80;99.90;;;;;;5025215;28;20549;-69
2023/05/17 05:06:25;;;;;;;8.73;3.27;;;10.20;99.90;;;;;;5023551;28;20419;-69
2023/05/17 05:08:51;;;;;;;10.10;3.67;;;10.20;99.90;;;;;;5018893;28;20545;-68
2023/05/17 05:11:17;;;;;;;8.23;4.23;;;10.20;99.90;;;;;;5018857;28;20176;-70
2023/05/17 05:13:45;;;;;;;4.43;2.87;;;10.70;99.90;;;;;;5013707;28;20464;-69
2023/05/17 05:16:11;;;;;;;4.43;3.10;;;11.30;99.90;;;;;;5014633;28;20184;-69
2023/05/17 05:18:36;;;;;;;7.90;3.50;;;11.50;99.90;;;;;;5024310;28;20642;-69
2023/05/17 05:21:05;;;;;;;5.43;2.50;;;11.40;99.90;;;;;;5025273;28;20210;-69
2023/05/17 05:23:31;;;;;;;6.90;3.17;;;11.90;99.90;;;;;;5019898;28;20178;-69
2023/05/17 05:25:56;;;;;;;6.90;3.10;;;12.00;99.90;;;;;;5024363;28;20467;-70
2023/05/17 05:28:25;;;;;;;9.30;3.30;;;12.30;99.90;;;;;;5022310;28;20222;-68
2023/05/17 05:30:57;;;;;;;5.80;2.10;;;12.40;99.90;;;;;;5013852;28;20230;-69
2023/05/17 05:33:26;;;;;;;5.70;2.50;;;13.00;99.90;;;;;;5023221;28;20419;-67
2023/05/17 05:35:51;;;;;;;4.27;2.50;;;13.00;99.90;;;;;;5012466;28;20438;-68
2023/05/17 05:38:17;;;;;;;7.30;3.47;;;12.80;99.90;;;;;;5026214;28;20916;-69
2023/05/17 05:40:48;;;;;;;3.03;2.10;;;12.80;99.90;;;;;;5020288;28;20189;-68
2023/05/17 05:43:15;;;;;;;7.97;4.00;;;12.60;99.90;;;;;;5027067;28;20222;-69
2023/05/17 05:45:44;;;;;;;5.97;4.27;;;12.20;99.90;;;;;;5020204;28;20946;-66
2023/05/17 05:48:11;;;;;;;8.00;3.13;;;12.40;99.90;;;;;;5027903;28;20435;-69
2023/05/17 05:50:37;;;;;;;7.33;2.90;;;12.40;99.90;;;;;;5009807;28;20407;-69
2023/05/17 05:53:03;;;;;;;4.90;2.93;;;12.00;99.90;;;;;;5013393;28;20439;-69
2023/05/17 05:55:28;;;;;;;7.40;2.83;;;12.40;99.90;;;;;;5014504;28;20651;-68
2023/05/17 05:57:54;;;;;;;5.40;2.43;;;12.50;99.90;;;;;;5020053;28;20435;-70
2023/05/17 06:00:20;;;;;;;7.80;3.47;;;12.60;99.90;;;;;;5026923;28;20208;-70
2023/05/17 06:02:45;;;;;;;8.50;3.00;;;13.00;99.90;;;;;;5023289;28;20183;-69
2023/05/17 06:05:11;;;;;;;6.33;2.57;;;13.40;99.90;;;;;;5028251;28;20249;-68
2023/05/17 06:07:36;;;;;;;10.73;3.67;;;13.50;99.90;;;;;;5020190;28;20194;-68
2023/05/17 06:10:03;;;;;;;4.87;2.70;;;13.80;99.90;;;;;;5010508;28;20198;-68
2023/05/17 06:12:28;;;;;;;7.23;2.93;;;14.30;99.90;;;;;;4999681;28;20619;-68
2023/05/17 06:14:54;;;;;;;7.80;3.23;;;13.90;99.90;;;;;;5024367;28;20441;-70
2023/05/17 06:17:20;;;;;;;8.97;3.13;;;12.80;99.90;;;;;;5021840;28;20632;-68
2023/05/17 06:19:47;;;;;;;2.90;2.60;;;12.90;99.90;;;;;;5017876;28;20240;-68
2023/05/17 06:22:14;;;;;;;7.77;2.60;;;12.90;99.90;;;;;;5013695;28;20431;-67
2023/05/17 06:24:40;;;;;;;6.10;2.13;;;12.20;99.90;;;;;;5024251;28;20983;-66
2023/05/17 06:27:06;;;;;;;5.53;2.53;;;12.80;99.90;;;;;;5017942;28;20427;-67
2023/05/17 06:29:31;;;;;;;6.83;2.40;;;13.90;99.90;;;;;;5021495;28;20577;-68
2023/05/17 06:31:58;;;;;;;6.27;2.70;;;14.70;99.90;;;;;;5022767;28;20418;-67
2023/05/17 06:34:24;;;;;;;5.83;2.77;;;14.20;99.90;;;;;;5021504;28;20204;-67
2023/05/17 06:36:50;;;;;;;4.07;2.20;;;13.50;99.90;;;;;;5022822;28;20461;-68
2023/05/17 06:39:15;;;;;;;7.03;2.23;;;13.10;99.90;;;;;;5013287;28;20205;-68
2023/05/17 06:41:41;;;;;;;7.40;2.20;;;13.10;99.90;;;;;;5023309;28;20648;-66
2023/05/17 06:44:07;;;;;;;6.03;2.30;;;12.60;99.90;;;;;;5022185;28;20647;-73
2023/05/17 06:46:35;;;;;;;5.10;2.53;;;12.90;99.90;;;;;;5018158;28;20209;-67
2023/05/17 06:49:01;;;;;;;5.80;2.27;;;14.30;99.90;;;;;;5021316;28;20680;-68
2023/05/17 06:51:26;;;;;;;7.47;2.33;;;15.60;99.90;;;;;;5023185;28;20423;-67
2023/05/17 06:53:54;;;;;;;7.73;1.80;;;16.40;99.90;;;;;;5017518;28;20178;-67
2023/05/17 06:56:20;;;;;;;5.60;2.40;;;15.40;99.90;;;;;;5015278;28;20182;-67
2023/05/17 06:58:46;;;;;;;3.10;1.80;;;14.60;99.90;;;;;;5017562;28;20820;-68
2023/05/17 07:01:12;;;;;;;4.60;1.43;;;15.40;99.90;;;;;;5022630;28;20412;-69
2023/05/17 07:03:38;;;;;;;7.43;1.80;;;14.60;99.90;;;;;;5007206;28;20551;-67
2023/05/17 07:06:04;;;;;;;3.60;1.70;;;14.90;99.90;;;;;;5020496;28;20511;-67
2023/05/17 07:08:30;;;;;;;6.17;2.33;;;15.10;99.90;;;;;;5023819;28;20200;-67
2023/05/17 07:10:55;;;;;;;6.43;1.60;;;15.50;99.90;;;;;;5022648;28;20540;-68
2023/05/17 07:13:21;;;;;;;5.60;3.07;;;16.40;99.90;;;;;;5022210;28;20265;-67
2023/05/17 07:15:47;;;;;;;4.93;2.30;;;15.90;99.90;;;;;;5023846;28;20235;-67
2023/05/17 07:18:16;;;;;;;6.10;2.20;;;17.30;99.90;;;;;;5022256;28;20203;-68
2023/05/17 07:20:41;;;;;;;4.80;2.17;;;17.20;98.70;;;;;;5023989;28;20202;-68
2023/05/17 07:23:07;;;;;;;3.97;2.13;;;16.70;98.80;;;;;;5006570;28;20460;-68
2023/05/17 07:25:37;;;;;;;4.80;2.00;;;16.30;99.60;;;;;;5022415;28;20231;-67
2023/05/17 07:28:04;;;;;;;4.00;1.70;;;17.20;98.90;;;;;;5023345;28;20258;-68
2023/05/17 07:30:29;;;;;;;4.17;1.97;;;17.60;98.30;;;;;;5020400;28;20413;-68
2023/05/17 07:32:55;;;;;;;5.60;2.37;;;18.20;96.00;;;;;;5023465;28;20425;-68
2023/05/17 07:35:21;;;;;;;3.90;2.57;;;18.00;95.60;;;;;;5008704;28;20196;-70
2023/05/17 07:37:47;;;;;;;3.17;1.60;;;18.30;96.40;;;;;;5021797;28;20940;-67
2023/05/17 07:40:13;;;;;;;4.43;2.20;;;19.00;95.40;;;;;;5022506;28;20201;-69
2023/05/17 07:42:38;;;;;;;3.00;1.90;;;17.80;95.90;;;;;;5021738;28;20714;-67
2023/05/17 07:45:05;;;;;;;7.43;2.87;;;17.50;97.60;;;;;;5016952;28;20430;-69
2023/05/17 07:47:30;;;;;;;4.40;2.17;;;16.00;97.60;;;;;;5022798;28;20199;-68
2023/05/17 07:49:56;;;;;;;5.63;4.50;;;14.80;99.70;;;;;;5031481;28;20435;-67
2023/05/17 07:52:21;;;;;;;4.10;1.90;;;14.70;99.90;;;;;;5024981;28;20188;-67
2023/05/17 07:54:47;;;;;;;9.70;1.90;;;15.40;99.90;;;;;;5025397;28;20632;-67
2023/05/17 07:57:13;;;;;;;4.63;2.03;;;16.60;99.20;;;;;;5026010;28;20198;-68
2023/05/17 07:59:38;;;;;;;3.80;1.73;;;16.30;97.30;;;;;;5025423;28;20195;-67
2023/05/17 08:02:04;;;;;;;3.83;1.90;;;17.70;94.70;;;;;;5025894;28;20270;-67
2023/05/17 08:04:30;;;;;;;4.53;1.70;;;17.00;94.10;;;;;;5025352;28;20175;-68
2023/05/17 08:06:55;;;;;;;3.80;1.40;;;17.00;94.20;;;;;;5026162;28;20228;-67
2023/05/17 08:09:21;;;;;;;6.20;1.63;;;17.40;92.90;;;;;;5024322;28;20567;-68
2023/05/17 08:11:47;;;;;;;4.40;1.87;;;17.50;92.70;;;;;;5024991;28;20226;-68
2023/05/17 08:14:16;;;;;;;5.60;1.90;;;19.10;90.50;;;;;;5021833;28;20179;-68
2023/05/17 08:16:42;;;;;;;4.30;1.70;;;18.60;92.10;;;;;;5025155;28;20217;-69
2023/05/17 08:19:13;;;;;;;2.90;1.40;;;17.50;90.20;;;;;;5025619;28;20512;-68
2023/05/17 08:21:40;;;;;;;4.70;2.20;;;18.00;87.50;;;;;;5022850;28;20914;-68
2023/05/17 08:24:06;;;;;;;5.20;2.70;;;18.10;85.60;;;;;;5025314;28;20418;-69
2023/05/17 08:26:32;;;;;;;7.77;2.30;;;18.10;90.70;;;;;;5022599;28;20420;-67
2023/05/17 08:28:58;;;;;;;6.37;2.10;;;19.10;87.60;;;;;;5012829;28;20212;-67
2023/05/17 08:31:23;;;;;;;8.63;1.97;;;19.60;87.50;;;;;;5019856;28;20497;-68
2023/05/17 08:33:49;;;;;;;4.77;1.90;;;19.40;87.40;;;;;;5025406;28;20670;-68
2023/05/17 08:36:15;;;;;;;11.33;2.27;;;18.40;90.70;;;;;;5022700;28;20189;-68
2023/05/17 08:38:41;;;;;;;7.40;2.50;;;17.90;90.00;;;;;;5026835;28;20636;-69
2023/05/17 08:41:08;;;;;;;8.80;2.60;;;17.10;92.90;;;;;;5022065;28;20230;-68
2023/05/17 08:43:34;;;;;;;5.93;2.20;;;17.40;92.50;;;;;;5022304;28;20415;-68
2023/05/17 08:46:02;;;;;;;5.00;1.73;;;17.80;90.00;;;;;;5021877;28;20429;-67
2023/05/17 08:48:29;;;;;;;7.70;3.27;;;17.30;91.30;;;;;;5026706;28;20550;-68
2023/05/17 08:50:58;;;;;;;10.20;2.87;;;17.20;88.90;;;;;;5021676;28;20425;-68
2023/05/17 08:53:25;;;;;;;7.93;2.83;;;18.20;89.80;;;;;;5023294;28;20411;-69
2023/05/17 08:55:56;;;;;;;5.43;2.20;;;19.10;85.40;;;;;;5025515;28;20475;-68
2023/05/17 08:58:26;;;;;;;5.10;2.30;;;18.30;84.00;;;;;;5022823;28;20441;-68
2023/05/17 09:00:54;;;;;;;4.60;1.67;;;18.70;83.80;;;;;;5025621;28;20483;-68
2023/05/17 09:03:22;;;;;;;4.60;1.93;;;18.50;81.00;;;;;;5023153;28;20418;-68
2023/05/17 09:05:54;;;;;;;6.70;2.00;;;17.50;85.70;;;;;;5025577;28;20577;-69
2023/05/17 09:08:22;;;;;;;5.60;2.23;;;19.00;86.00;;;;;;5025181;28;20772;-68
2023/05/17 09:10:48;;;;;;;6.73;1.87;;;19.00;84.20;;;;;;5024721;28;20421;-67
2023/05/17 09:13:15;;;;;;;5.00;1.83;;;19.50;82.60;;;;;;5022132;28;21003;-67
2023/05/17 09:15:45;;;;;;;4.27;1.60;;;18.90;83.20;;;;;;5024468;28;20432;-67
2023/05/17 09:18:11;;;;;;;3.87;1.80;;;19.40;81.90;;;;;;5025587;28;20939;-68
2023/05/17 09:20:38;;;;;;;7.53;1.90;;;20.00;80.10;;;;;;5022608;28;20448;-67
2023/05/17 09:23:05;;;;;;;3.87;1.90;;;19.30;79.50;;;;;;5024706;28;20217;-67
2023/05/17 09:25:31;;;;;;;10.90;1.97;;;18.90;77.10;;;;;;5023931;28;20829;-68
2023/05/17 09:28:08;;;;;;;4.23;1.90;;;18.10;76.70;;;;;;5024594;28;20465;-68
2023/05/17 09:30:38;;;;;;;7.43;2.97;;;19.00;78.00;;;;;;5000757;28;20240;-71
2023/05/17 09:33:06;;;;;;;8.67;2.17;;;19.40;78.00;;;;;;4987559;28;20463;-70
2023/05/17 09:35:32;;;;;;;7.37;1.80;;;19.90;77.80;;;;;;5020205;28;21126;-69
2023/05/17 09:38:10;;;;;;;7.10;2.90;;;18.30;81.10;;;;;;5015974;28;20960;-69
2023/05/17 09:40:43;;;;;;;5.03;2.20;;;18.80;80.30;;;;;;5016928;28;20433;-68
2023/05/17 09:43:10;;;;;;;8.83;2.17;;;19.30;77.20;;;;;;4998463;28;20824;-67
2023/05/17 09:45:36;;;;;;;5.97;1.93;;;20.10;75.10;;;;;;4992064;28;20431;-71
2023/05/17 09:48:12;;;;;;;5.70;1.70;;;18.70;73.90;;;;;;5026474;28;20453;-68
2023/05/17 09:50:44;;;;;;;6.53;1.93;;;17.80;76.70;;;;;;5015484;28;21177;-68
2023/05/17 09:53:21;;;;;;;7.40;2.23;;;18.30;75.70;;;;;;5020257;28;20424;-67
2023/05/17 09:55:47;;;;;;;7.57;1.90;;;18.60;74.70;;;;;;5015631;28;20902;-67
2023/05/17 09:58:13;;;;;;;5.33;2.00;;;18.00;74.80;;;;;;5020133;28;21220;-68
2023/05/17 10:00:40;;;;;;;4.80;1.63;;;17.10;74.70;;;;;;5026507;28;20449;-70
2023/05/17 10:03:09;;;;;;;7.60;2.00;;;17.40;75.70;;;;;;5018217;28;20179;-68
2023/05/17 10:05:35;;;;;;;4.10;2.13;;;17.80;76.80;;;;;;5030637;28;20421;-68
2023/05/17 10:08:03;;;;;;;4.23;1.47;;;17.30;77.10;;;;;;5021168;28;20849;-68
2023/05/17 10:10:29;;;;;;;3.93;2.07;;;17.40;77.60;;;;;;5021697;28;20421;-68
2023/05/17 10:12:56;;;;;;;6.80;2.33;;;17.50;77.40;;;;;;5022925;28;20917;-68
2023/05/17 10:15:22;;;;;;;3.50;1.70;;;16.80;76.30;;;;;;5021300;28;20432;-68
2023/05/17 10:17:48;;;;;;;6.80;2.23;;;16.60;76.30;;;;;;5019143;28;20781;-67
2023/05/17 10:20:16;;;;;;;5.80;1.80;;;16.10;80.10;;;;;;5017141;28;20456;-68
2023/05/17 10:22:42;;;;;;;5.97;1.40;;;15.70;80.90;;;;;;5026395;28;20421;-68
2023/05/17 10:25:08;;;;;;;10.80;2.80;;;15.70;81.10;;;;;;5019345;28;20420;-69
2023/05/17 10:27:34;;;;;;;7.23;2.40;;;15.90;79.90;;;;;;5022574;28;20527;-68
2023/05/17 10:30:00;;;;;;;4.23;1.87;;;16.20;76.60;;;;;;5023077;28;20419;-68
2023/05/17 10:32:27;;;;;;;13.20;2.30;;;16.00;75.20;;;;;;5022254;28;20918;-68
2023/05/17 10:34:54;;;;;;;5.53;1.63;;;16.00;75.30;;;;;;5022872;28;20461;-68
2023/05/17 10:37:21;;;;;;;4.07;1.93;;;15.80;77.40;;;;;;5020084;28;20408;-68
2023/05/17 10:39:50;;;;;;;4.93;1.70;;;15.40;77.70;;;;;;5022985;28;20458;-68
2023/05/17 10:42:18;;;;;;;3.10;2.13;;;15.80;77.20;;;;;;5020575;28;20413;-69
2023/05/17 10:44:43;;;;;;;6.40;1.73;;;15.90;75.70;;;;;;5022571;28;20521;-68
2023/05/17 10:47:10;;;;;;;7.37;2.73;;;15.60;75.50;;;;;;5021728;28;20442;-69
2023/05/17 10:49:38;;;;;;;6.57;2.20;;;15.50;76.20;;;;;;5011394;28;20179;-70
2023/05/17 10:52:16;;;;;;;4.83;2.13;;;15.70;76.30;;;;;;5021719;28;20418;-69
2023/05/17 10:54:43;;;;;;;4.30;1.77;;;15.60;76.30;;;;;;5013787;28;20418;-68
2023/05/17 10:57:18;;;;;;;6.77;2.03;;;15.30;76.40;;;;;;5022759;28;20414;-68
2023/05/17 10:59:58;;;;;;;8.63;2.50;;;15.10;76.80;;;;;;5015368;28;20468;-70
2023/05/17 11:02:26;;;;;;;4.43;2.30;;;15.20;79.90;;;;;;5021278;28;20445;-71
2023/05/17 11:04:52;;;;;;;8.83;1.80;;;15.30;77.70;;;;;;5024036;28;20421;-68
2023/05/17 11:09:45;;;;;;;5.27;1.50;;;14.80;77.80;;;;;;5019729;28;20419;-67
2023/05/17 11:12:12;;;;;;;2.70;1.60;;;14.70;79.00;;;;;;5025285;28;20176;-67
2023/05/17 11:14:48;;;;;;;9.93;2.20;;;14.90;79.80;;;;;;5016596;28;20403;-68
2023/05/17 11:17:14;;;;;;;8.30;2.00;;;15.20;79.60;;;;;;5025324;28;20873;-68
2023/05/17 11:19:58;;;;;;;8.17;1.80;;;15.40;79.30;;;;;;5018536;28;20815;-69
2023/05/17 11:22:24;;;;;;;7.17;2.33;;;15.30;80.80;;;;;;5026476;28;20906;-68
2023/05/17 11:24:54;;;;;;;6.40;1.63;;;15.40;79.80;;;;;;5022891;28;20496;-68
2023/05/17 11:27:26;;;;;;;4.73;2.10;;;15.20;78.80;;;;;;5023654;28;20511;-69
2023/05/17 11:29:53;;;;;;;5.00;3.00;;;15.30;79.00;;;;;;5026624;28;20426;-70
2023/05/17 11:32:27;;;;;;;3.73;2.00;;;15.10;78.40;;;;;;5025198;28;20418;-68
2023/05/17 11:34:52;;;;;;;3.90;1.73;;;15.20;79.00;;;;;;5026005;28;20959;-68
2023/05/17 11:37:28;;;;;;;5.50;1.90;;;15.10;78.40;;;;;;5023323;28;20415;-69
2023/05/17 11:40:07;;;;;;;8.30;1.70;;;15.10;79.70;;;;;;5025966;28;20199;-68
2023/05/17 11:42:34;;;;;;;5.03;1.60;;;15.30;77.70;;;;;;5025541;28;20398;-68
2023/05/17 11:45:01;;;;;;;3.90;1.90;;;15.40;79.00;;;;;;5026061;28;20441;-69
2023/05/17 11:47:27;;;;;;;5.30;1.90;;;15.50;77.90;;;;;;5025025;28;20400;-68
2023/05/17 11:49:55;;;;;;;4.10;2.17;;;15.30;79.10;;;;;;5024698;28;20771;-67
2023/05/17 11:52:21;;;;;;;5.23;2.50;;;15.40;76.20;;;;;;5023356;28;20418;-67
2023/05/17 11:54:48;;;;;;;3.30;1.60;;;15.60;76.40;;;;;;5024582;28;20504;-67
2023/05/17 11:57:16;;;;;;;5.87;1.73;;;15.50;75.80;;;;;;5021574;28;20421;-70
2023/05/17 11:59:42;;;;;;;5.67;1.80;;;15.80;76.90;;;;;;5018301;28;20466;-69
2023/05/17 12:02:08;;;;;;;4.30;1.67;;;15.80;77.40;;;;;;5024796;28;20417;-68
2023/05/17 12:04:37;;;;;;;7.17;1.90;;;15.60;75.10;;;;;;5024679;28;20635;-71
2023/05/17 12:07:03;;;;;;;7.87;2.00;;;15.70;77.00;;;;;;5014195;28;20422;-70
2023/05/17 12:09:30;;;;;;;6.60;1.90;;;15.40;77.30;;;;;;5014225;28;20530;-68
2023/05/17 12:11:56;;;;;;;5.70;2.50;;;15.50;78.80;;;;;;5016876;28;20418;-68
2023/05/17 12:14:23;;;;;;;8.43;1.93;;;15.50;78.30;;;;;;5010247;28;20411;-71
2023/05/17 12:16:55;;;;;;;3.30;2.20;;;15.60;77.50;;;;;;5015586;28;20904;-71
2023/05/17 12:19:22;;;;;;;3.70;1.63;;;15.60;78.50;;;;;;5022732;28;20520;-68
2023/05/17 12:21:48;;;;;;;6.67;2.23;;;15.80;79.20;;;;;;5018548;28;20418;-68
2023/05/17 12:24:14;;;;;;;7.00;2.10;;;15.80;77.10;;;;;;5023209;28;20408;-68
2023/05/17 12:26:44;;;;;;;4.53;2.67;;;15.90;75.60;;;;;;5027879;28;20433;-69
2023/05/17 12:29:10;;;;;;;5.30;1.97;;;15.70;73.70;;;;;;5018009;28;20454;-67
2023/05/17 12:31:42;;;;;;;3.93;1.87;;;15.50;74.90;;;;;;5014859;28;20783;-68
2023/05/17 12:34:11;;;;;;;3.33;1.33;;;15.40;74.80;;;;;;5019363;28;20407;-68
2023/05/17 12:36:37;;;;;;;6.80;1.47;;;15.60;74.90;;;;;;5005894;28;20495;-68
2023/05/17 12:39:05;;;;;;;6.37;1.80;;;15.60;75.50;;;;;;5021884;28;20546;-70
2023/05/17 12:41:31;;;;;;;5.73;2.20;;;15.80;75.60;;;;;;5024506;28;20496;-69
2023/05/17 12:43:57;;;;;;;4.77;1.67;;;15.90;76.80;;;;;;5025541;28;20844;-70
2023/05/17 12:46:23;;;;;;;2.67;1.40;;;15.80;76.30;;;;;;5023349;28;20504;-69
2023/05/17 12:48:53;;;;;;;5.63;2.10;;;15.90;77.30;;;;;;5027280;28;20196;-69
2023/05/17 12:51:22;;;;;;;3.27;2.13;;;15.70;75.40;;;;;;5022776;28;20207;-69